createdAt,value
2017-11-22T00:02:01.464Z,99.90
2017-11-22T00:04:39.857Z,99.90
2017-11-22T00:07:19.670Z,99.90
2017-11-22T00:10:00.094Z,99.90
2017-11-22T00:12:42.141Z,99.90
2017-11-22T00:15:25.060Z,99.90
2017-11-22T00:18:05.771Z,99.90
2017-11-22T00:20:40.081Z,99.90
2017-11-22T00:23:22.517Z,99.90
2017-11-22T00:25:59.552Z,99.90
2017-11-22T00:28:38.969Z,99.90
2017-11-22T00:31:14.611Z,99.90
2017-11-22T00:33:54.062Z,99.90
2017-11-22T00:36:33.882Z,99.90
2017-11-22T00:39:08.027Z,99.90
2017-11-22T00:41:41.908Z,99.90
2017-11-22T00:44:20.621Z,99.90
2017-11-22T00:47:01.656Z,99.90
2017-11-22T00:49:43.343Z,99.90
2017-11-22T00:52:16.385Z,99.90
2017-11-22T00:54:56.485Z,99.90
2017-11-22T00:57:42.333Z,99.90
2017-11-22T01:00:22.300Z,99.90
2017-11-22T01:03:02.097Z,99.90
2017-11-22T01:05:42.408Z,99.90
2017-11-22T01:08:21.493Z,99.90
2017-11-22T01:10:56.261Z,99.90
2017-11-22T01:13:36.164Z,99.90
2017-11-22T01:16:16.176Z,99.90
2017-11-22T01:18:54.838Z,99.90
2017-11-22T01:21:35.934Z,99.90
2017-11-22T01:24:14.329Z,99.90
2017-11-22T01:26:53.375Z,99.90
2017-11-22T01:29:33.939Z,99.90
2017-11-22T01:32:14.197Z,99.90
2017-11-22T01:34:44.256Z,99.90
2017-11-22T01:37:24.117Z,99.90
2017-11-22T01:40:03.123Z,99.90
2017-11-22T01:42:43.725Z,99.90
2017-11-22T01:45:23.982Z,99.90
2017-11-22T01:48:02.702Z,99.90
2017-11-22T01:50:40.929Z,99.90
2017-11-22T01:53:15.486Z,99.90
2017-11-22T01:55:55.686Z,99.90
2017-11-22T02:01:12.521Z,99.90
2017-11-22T02:03:52.833Z,99.90
2017-11-22T02:06:32.304Z,99.90
2017-11-22T02:09:11.549Z,99.90
2017-11-22T02:11:51.350Z,99.90
2017-11-22T02:14:30.578Z,99.90
2017-11-22T02:17:04.290Z,99.90
2017-11-22T02:24:59.887Z,99.90
2017-11-22T02:27:39.857Z,99.90
2017-11-22T02:30:20.035Z,99.90
2017-11-22T02:32:59.842Z,99.90
2017-11-22T02:35:33.080Z,99.90
2017-11-22T02:38:11.820Z,99.90
2017-11-22T02:40:49.972Z,99.90
2017-11-22T02:43:28.596Z,99.90
2017-11-22T02:46:08.686Z,99.90
2017-11-22T02:48:47.961Z,99.90
2017-11-22T02:51:25.895Z,99.90
2017-11-22T02:54:05.235Z,99.90
2017-11-22T02:56:44.559Z,99.90
2017-11-22T02:59:25.425Z,99.90
2017-11-22T03:01:59.062Z,99.90
2017-11-22T03:04:28.011Z,99.90
2017-11-22T03:07:06.493Z,99.90
2017-11-22T03:09:40.327Z,99.90
2017-11-22T03:12:21.949Z,99.90
2017-11-22T03:15:01.233Z,99.90
2017-11-22T03:17:40.050Z,99.90
2017-11-22T03:20:12.273Z,99.90
2017-11-22T03:22:52.077Z,99.90
2017-11-22T03:25:30.691Z,99.90
2017-11-22T03:28:00.247Z,99.90
2017-11-22T03:30:39.199Z,99.90
2017-11-22T03:33:17.859Z,99.90
2017-11-22T03:35:55.822Z,99.90
2017-11-22T03:38:28.820Z,99.90
2017-11-22T03:41:08.266Z,99.90
2017-11-22T03:43:46.302Z,99.90
2017-11-22T03:46:19.798Z,99.90
2017-11-22T03:49:03.486Z,99.90
2017-11-22T03:51:37.990Z,99.90
2017-11-22T03:54:19.155Z,99.90
2017-11-22T03:56:59.181Z,99.90
2017-11-22T03:59:38.131Z,99.90
2017-11-22T04:02:16.460Z,99.90
2017-11-22T04:04:50.564Z,99.90
2017-11-22T04:07:34.176Z,99.90
2017-11-22T04:10:12.959Z,99.90
2017-11-22T04:12:45.959Z,99.90
2017-11-22T04:15:26.939Z,99.90
2017-11-22T04:18:08.670Z,99.90
2017-11-22T04:20:47.866Z,99.90
2017-11-22T04:23:25.619Z,99.90
2017-11-22T04:26:06.606Z,99.90
2017-11-22T04:28:44.290Z,99.90
2017-11-22T04:31:24.542Z,99.90
2017-11-22T04:34:02.491Z,99.90
2017-11-22T04:36:41.180Z,99.90
2017-11-22T04:39:21.128Z,99.90
2017-11-22T04:42:02.116Z,99.90
2017-11-22T04:44:41.148Z,99.90
2017-11-22T04:47:15.861Z,99.90
2017-11-22T04:49:54.410Z,99.90
2017-11-22T04:52:33.104Z,99.90
2017-11-22T04:55:11.056Z,99.90
2017-11-22T04:57:49.222Z,99.90
2017-11-22T05:00:22.990Z,99.90
2017-11-22T05:02:58.231Z,99.90
2017-11-22T05:05:39.073Z,99.90
2017-11-22T05:08:19.534Z,99.90
2017-11-22T05:11:01.467Z,99.90
2017-11-22T05:13:39.815Z,99.90
2017-11-22T05:16:18.873Z,99.90
2017-11-22T05:18:59.273Z,99.90
2017-11-22T05:21:37.011Z,99.90
2017-11-22T05:24:15.591Z,99.90
2017-11-22T05:26:56.260Z,99.90
2017-11-22T05:29:33.999Z,99.90
2017-11-22T05:32:12.931Z,99.90
2017-11-22T05:34:51.109Z,99.90
2017-11-22T05:37:28.779Z,99.90
2017-11-22T05:40:03.874Z,99.90
2017-11-22T05:42:42.896Z,99.90
2017-11-22T05:45:18.056Z,99.90
2017-11-22T05:47:57.732Z,99.90
2017-11-22T05:50:31.439Z,99.90
2017-11-22T05:53:09.924Z,99.90
2017-11-22T05:55:50.757Z,99.90
2017-11-22T05:58:30.162Z,99.90
2017-11-22T06:01:11.343Z,99.90
2017-11-22T06:03:48.667Z,99.90
2017-11-22T06:06:23.368Z,99.90
2017-11-22T06:08:52.928Z,99.90
2017-11-22T06:11:32.678Z,99.90
2017-11-22T06:14:07.160Z,99.90
2017-11-22T06:16:46.654Z,99.90
2017-11-22T06:19:24.496Z,99.90
2017-11-22T06:22:02.250Z,99.90
2017-11-22T06:24:40.667Z,99.90
2017-11-22T06:27:17.928Z,99.90
2017-11-22T06:29:59.019Z,99.90
2017-11-22T06:32:38.007Z,99.90
2017-11-22T06:35:17.657Z,99.90
2017-11-22T06:37:53.805Z,99.90
2017-11-22T06:40:28.164Z,99.90
2017-11-22T06:43:06.713Z,99.90
2017-11-22T06:45:46.071Z,99.90
2017-11-22T06:48:26.566Z,99.90
2017-11-22T06:51:05.643Z,99.90
2017-11-22T06:53:44.417Z,99.90
2017-11-22T06:56:22.381Z,99.90
2017-11-22T06:59:02.493Z,99.90
2017-11-22T07:01:47.453Z,99.90
2017-11-22T07:04:20.643Z,99.90
2017-11-22T07:06:58.673Z,99.90
2017-11-22T07:09:38.474Z,99.90
2017-11-22T07:12:19.663Z,99.90
2017-11-22T07:14:57.704Z,99.90
2017-11-22T07:17:37.130Z,99.90
2017-11-22T07:20:10.616Z,99.90
2017-11-22T07:22:49.831Z,99.90
2017-11-22T07:25:29.438Z,99.90
2017-11-22T07:28:08.097Z,99.90
2017-11-22T07:30:47.728Z,99.90
2017-11-22T07:33:25.850Z,99.90
2017-11-22T07:36:04.108Z,99.90
2017-11-22T07:38:41.249Z,99.90
2017-11-22T07:41:20.575Z,99.90
2017-11-22T07:44:01.830Z,99.90
2017-11-22T07:46:36.300Z,99.90
2017-11-22T07:49:16.366Z,99.90
2017-11-22T07:51:58.323Z,99.90
2017-11-22T07:54:38.875Z,99.90
2017-11-22T07:57:14.149Z,99.90
2017-11-22T07:59:52.751Z,99.90
2017-11-22T08:02:32.978Z,99.90
2017-11-22T08:05:12.557Z,99.90
2017-11-22T08:07:47.221Z,99.90
2017-11-22T08:10:25.615Z,99.90
2017-11-22T08:12:59.001Z,99.90
2017-11-22T08:15:38.291Z,99.90
2017-11-22T08:18:13.248Z,99.90
2017-11-22T08:20:58.090Z,99.90
2017-11-22T08:23:38.133Z,99.90
2017-11-22T08:26:08.870Z,99.90
2017-11-22T08:28:47.934Z,99.90
2017-11-22T08:31:28.330Z,99.90
2017-11-22T08:34:03.680Z,99.90
2017-11-22T08:36:41.781Z,99.90
2017-11-22T08:39:21.298Z,99.90
2017-11-22T08:41:50.618Z,99.90
2017-11-22T08:44:34.667Z,99.90
2017-11-22T08:47:15.627Z,99.90
2017-11-22T08:49:55.111Z,99.90
2017-11-22T08:52:34.329Z,99.90
2017-11-22T08:55:07.478Z,99.90
2017-11-22T09:00:29.568Z,99.90
2017-11-22T09:03:09.274Z,99.90
2017-11-22T09:05:54.486Z,99.90
2017-11-22T09:08:32.460Z,99.90
2017-11-22T09:11:06.081Z,99.90
2017-11-22T09:13:40.955Z,99.90
2017-11-22T09:16:14.451Z,99.90
2017-11-22T09:18:50.790Z,99.90
2017-11-22T09:23:58.703Z,99.90
2017-11-22T09:26:38.504Z,99.90
2017-11-22T09:29:17.315Z,99.90
2017-11-22T09:32:00.937Z,99.90
2017-11-22T09:34:38.213Z,99.90
2017-11-22T09:37:18.597Z,99.90
2017-11-22T09:39:52.942Z,99.90
2017-11-22T09:42:33.357Z,99.90
2017-11-22T09:45:12.834Z,99.90
2017-11-22T09:47:51.936Z,99.90
2017-11-22T09:50:26.187Z,99.90
2017-11-22T09:53:01.926Z,99.90
2017-11-22T09:55:36.367Z,99.90
2017-11-22T09:58:14.491Z,99.90
2017-11-22T10:00:53.846Z,99.90
2017-11-22T10:03:35.426Z,99.90
2017-11-22T10:06:13.540Z,99.90
2017-11-22T10:08:47.751Z,99.90
2017-11-22T10:11:22.787Z,99.90
2017-11-22T10:14:01.333Z,99.90
2017-11-22T10:16:35.971Z,99.90
2017-11-22T10:19:11.466Z,99.90
2017-11-22T10:21:45.850Z,99.80
2017-11-22T10:24:27.271Z,99.90
2017-11-22T10:27:10.776Z,99.20
2017-11-22T10:29:50.562Z,99.20
2017-11-22T10:32:29.501Z,98.80
2017-11-22T10:35:09.200Z,98.30
2017-11-22T10:37:52.363Z,97.20
2017-11-22T10:40:35.140Z,97.20
2017-11-22T10:43:11.634Z,96.70
2017-11-22T10:45:41.244Z,97.10
2017-11-22T10:48:19.888Z,97.30
2017-11-22T10:50:54.237Z,97.30
2017-11-22T10:53:28.544Z,97.40
2017-11-22T10:56:10.807Z,97.30
2017-11-22T10:58:44.834Z,96.80
2017-11-22T11:01:19.107Z,96.10
2017-11-22T11:03:54.422Z,96.10
2017-11-22T11:06:32.232Z,96.40
2017-11-22T11:09:07.720Z,96.20
2017-11-22T11:11:41.642Z,95.40
2017-11-22T11:14:15.540Z,95.30
2017-11-22T11:16:54.487Z,95.60
2017-11-22T11:19:27.748Z,95.10
2017-11-22T11:22:05.368Z,94.80
2017-11-22T11:24:43.387Z,94.70
2017-11-22T11:27:18.585Z,94.10
2017-11-22T11:29:51.892Z,93.40
2017-11-22T11:32:25.987Z,93.00
2017-11-22T11:35:03.633Z,93.60
2017-11-22T11:37:45.411Z,93.30
2017-11-22T11:40:18.747Z,92.60
2017-11-22T11:42:57.181Z,91.90
2017-11-22T11:45:37.969Z,89.40
2017-11-22T11:48:18.524Z,89.40
2017-11-22T11:50:54.744Z,90.00
2017-11-22T11:53:29.950Z,90.00
2017-11-22T11:56:11.965Z,88.80
2017-11-22T11:58:54.602Z,88.50
2017-11-22T12:01:33.657Z,88.80
2017-11-22T12:07:10.888Z,89.00
2017-11-22T12:09:50.809Z,89.10
2017-11-22T12:12:30.388Z,90.20
2017-11-22T12:15:09.967Z,88.70
2017-11-22T12:17:48.274Z,89.60
2017-11-22T12:20:24.046Z,89.90
2017-11-22T12:23:08.596Z,87.20
2017-11-22T12:25:48.667Z,87.10
2017-11-22T12:28:29.133Z,90.80
2017-11-22T12:31:12.564Z,90.50
2017-11-22T12:33:46.827Z,89.30
2017-11-22T12:36:22.736Z,87.30
2017-11-22T12:39:02.585Z,85.50
2017-11-22T12:41:44.131Z,89.00
2017-11-22T12:44:27.803Z,88.90
2017-11-22T12:47:07.270Z,88.60
2017-11-22T12:49:42.210Z,87.50
2017-11-22T12:52:21.043Z,87.00
2017-11-22T12:55:01.416Z,90.00
2017-11-22T12:57:59.901Z,89.60
2017-11-22T13:00:49.251Z,90.50
2017-11-22T13:03:22.885Z,88.10
2017-11-22T13:06:00.310Z,87.50
2017-11-22T13:08:34.013Z,87.40
2017-11-22T13:11:22.226Z,85.80
2017-11-22T13:13:57.702Z,83.00
2017-11-22T13:16:33.337Z,82.70
2017-11-22T13:19:08.368Z,81.40
2017-11-22T13:21:48.147Z,81.40
2017-11-22T13:24:26.947Z,83.60
2017-11-22T13:27:04.984Z,84.40
2017-11-22T13:29:42.705Z,85.50
2017-11-22T13:32:24.430Z,86.60
2017-11-22T13:35:05.815Z,85.30
2017-11-22T13:37:40.005Z,85.10
2017-11-22T13:40:19.876Z,86.60
2017-11-22T13:43:00.225Z,89.00
2017-11-22T13:45:41.767Z,89.10
2017-11-22T13:48:21.620Z,88.30
2017-11-22T13:51:01.054Z,87.90
2017-11-22T13:53:35.114Z,87.50
2017-11-22T13:56:11.334Z,86.20
2017-11-22T13:58:46.530Z,86.20
2017-11-22T14:01:23.327Z,86.10
2017-11-22T14:03:58.169Z,86.40
2017-11-22T14:06:40.584Z,88.20
2017-11-22T14:09:18.229Z,89.80
2017-11-22T14:11:57.562Z,89.20
2017-11-22T14:14:31.327Z,88.00
2017-11-22T14:17:05.446Z,87.70
2017-11-22T14:19:39.407Z,87.90
2017-11-22T14:22:15.545Z,87.90
2017-11-22T14:24:50.807Z,86.90
2017-11-22T14:27:30.530Z,86.40
2017-11-22T14:30:09.585Z,87.10
2017-11-22T14:32:44.816Z,86.90
2017-11-22T14:35:24.320Z,86.80
2017-11-22T14:37:59.367Z,87.40
2017-11-22T14:40:39.583Z,86.40
2017-11-22T14:43:19.054Z,87.00
2017-11-22T14:45:58.686Z,87.00
2017-11-22T14:48:38.152Z,87.70
2017-11-22T14:51:18.471Z,87.70
2017-11-22T14:53:53.544Z,87.70
2017-11-22T14:56:32.122Z,89.00
2017-11-22T14:59:15.840Z,90.80
2017-11-22T15:01:49.962Z,90.80
2017-11-22T15:04:25.385Z,91.80
2017-11-22T15:07:00.520Z,92.50
2017-11-22T15:09:35.765Z,93.20
2017-11-22T15:12:09.424Z,94.10
2017-11-22T15:14:49.166Z,94.70
2017-11-22T15:17:28.712Z,95.40
2017-11-22T15:20:09.291Z,96.20
2017-11-22T15:22:49.585Z,96.60
2017-11-22T15:25:32.227Z,96.90
2017-11-22T15:28:14.155Z,97.10
2017-11-22T15:30:52.289Z,97.30
2017-11-22T15:33:27.128Z,97.30
2017-11-22T15:36:05.614Z,97.50
2017-11-22T15:38:47.191Z,97.70
2017-11-22T15:41:28.881Z,97.80
2017-11-22T15:44:11.577Z,97.90
2017-11-22T15:46:50.233Z,97.80
2017-11-22T15:49:30.104Z,98.00
2017-11-22T15:52:09.996Z,98.00
2017-11-22T15:54:45.792Z,98.00
2017-11-22T15:57:24.503Z,98.00
2017-11-22T16:00:02.808Z,98.00
2017-11-22T16:02:43.711Z,98.10
2017-11-22T16:05:16.919Z,98.00
2017-11-22T16:07:59.769Z,98.00
2017-11-22T16:10:37.612Z,98.00
2017-11-22T16:13:17.882Z,97.90
2017-11-22T16:15:53.199Z,97.90
2017-11-22T16:18:35.439Z,97.80
2017-11-22T16:21:14.821Z,98.00
2017-11-22T16:23:55.782Z,97.90
2017-11-22T16:26:37.370Z,98.00
2017-11-22T16:29:17.490Z,98.20
2017-11-22T16:31:54.836Z,98.20
2017-11-22T16:34:28.492Z,98.40
2017-11-22T16:37:07.910Z,98.90
2017-11-22T16:39:46.083Z,98.90
2017-11-22T16:42:24.882Z,99.10
2017-11-22T16:44:59.400Z,99.40
2017-11-22T16:47:38.783Z,99.50
2017-11-22T16:50:18.036Z,99.50
2017-11-22T16:52:50.723Z,99.50
2017-11-22T16:55:29.557Z,99.60
2017-11-22T16:58:03.221Z,99.70
2017-11-22T17:00:34.363Z,99.70
2017-11-22T17:03:13.088Z,99.70
2017-11-22T17:05:50.953Z,99.90
2017-11-22T17:08:29.881Z,99.90
2017-11-22T17:11:03.267Z,99.90
2017-11-22T17:13:36.121Z,99.90
2017-11-22T17:16:14.535Z,99.90
2017-11-22T17:18:51.931Z,99.90
2017-11-22T17:21:30.820Z,99.90
2017-11-22T17:24:11.743Z,99.90
2017-11-22T17:26:56.970Z,99.90
2017-11-22T17:29:36.097Z,99.90
2017-11-22T17:32:14.095Z,99.90
2017-11-22T17:34:43.768Z,99.90
2017-11-22T17:37:26.162Z,99.90
2017-11-22T17:40:08.510Z,99.90
2017-11-22T17:42:45.431Z,99.90
2017-11-22T17:45:22.536Z,99.80
2017-11-22T17:48:01.907Z,99.70
2017-11-22T17:50:34.620Z,99.70
2017-11-22T17:53:15.532Z,99.70
2017-11-22T17:55:53.403Z,99.50
2017-11-22T17:58:28.316Z,99.50
2017-11-22T18:01:01.388Z,99.40
2017-11-22T18:03:35.008Z,99.40
2017-11-22T18:06:07.647Z,99.30
2017-11-22T18:08:44.836Z,99.40
2017-11-22T18:11:21.840Z,99.30
2017-11-22T18:14:02.011Z,99.30
2017-11-22T18:16:39.500Z,99.30
2017-11-22T18:19:17.203Z,99.40
2017-11-22T18:21:57.041Z,99.60
2017-11-22T18:24:30.521Z,99.70
2017-11-22T18:27:04.097Z,99.80
2017-11-22T18:29:37.459Z,99.70
2017-11-22T18:32:19.542Z,99.80
2017-11-22T18:34:58.510Z,99.70
2017-11-22T18:37:37.508Z,99.80
2017-11-22T18:40:17.240Z,99.90
2017-11-22T18:42:50.181Z,99.90
2017-11-22T18:45:34.583Z,99.90
2017-11-22T18:48:12.984Z,99.90
2017-11-22T18:50:48.412Z,99.90
2017-11-22T18:53:21.828Z,99.90
2017-11-22T18:55:55.306Z,99.90
2017-11-22T18:58:32.560Z,99.90
2017-11-22T19:01:10.387Z,99.90
2017-11-22T19:03:43.637Z,99.90
2017-11-22T19:06:23.864Z,99.90
2017-11-22T19:09:01.274Z,99.90
2017-11-22T19:11:44.599Z,99.90
2017-11-22T19:14:20.081Z,99.90
2017-11-22T19:17:02.904Z,99.90
2017-11-22T19:19:42.794Z,99.90
2017-11-22T19:22:21.057Z,99.90
2017-11-22T19:25:00.328Z,99.90
2017-11-22T19:27:35.991Z,99.90
2017-11-22T19:30:15.032Z,99.90
2017-11-22T19:32:56.582Z,99.90
2017-11-22T19:35:33.804Z,99.90
2017-11-22T19:38:06.725Z,99.90
2017-11-22T19:40:43.762Z,99.90
2017-11-22T19:43:15.501Z,99.90
2017-11-22T19:45:53.107Z,99.90
2017-11-22T19:48:30.123Z,99.90
2017-11-22T19:51:03.071Z,99.90
2017-11-22T19:53:35.997Z,99.90
2017-11-22T19:56:10.182Z,99.90
2017-11-22T19:58:49.446Z,99.90
2017-11-22T20:01:23.886Z,99.90
2017-11-22T20:03:54.021Z,99.90
2017-11-22T20:06:31.512Z,99.90
2017-11-22T20:09:11.664Z,99.90
2017-11-22T20:11:49.855Z,99.90
2017-11-22T20:14:28.818Z,99.90
2017-11-22T20:17:07.502Z,99.90
2017-11-22T20:19:40.994Z,99.90
2017-11-22T20:22:18.559Z,99.90
2017-11-22T20:24:51.904Z,99.90
2017-11-22T20:27:30.696Z,99.90
2017-11-22T20:30:09.446Z,99.90
2017-11-22T20:32:48.175Z,99.90
2017-11-22T20:35:28.096Z,99.90
2017-11-22T20:38:05.231Z,99.90
2017-11-22T20:40:43.998Z,99.90
2017-11-22T20:43:22.872Z,99.90
2017-11-22T20:46:01.489Z,99.90
2017-11-22T20:48:39.433Z,99.90
2017-11-22T20:51:22.312Z,99.90
2017-11-22T20:53:51.309Z,99.90
2017-11-22T20:56:23.335Z,99.90
2017-11-22T20:59:03.794Z,99.90
2017-11-22T21:01:41.500Z,99.90
2017-11-22T21:04:19.950Z,99.90
2017-11-22T21:07:00.520Z,99.90
2017-11-22T21:09:39.363Z,99.90
2017-11-22T21:12:18.914Z,99.90
2017-11-22T21:14:52.568Z,99.90
2017-11-22T21:17:30.508Z,99.90
2017-11-22T21:20:01.049Z,99.90
2017-11-22T21:22:40.324Z,99.90
2017-11-22T21:25:19.568Z,99.90
2017-11-22T21:27:52.059Z,99.90
2017-11-22T21:30:26.348Z,99.90
2017-11-22T21:33:00.564Z,99.90
2017-11-22T21:35:37.233Z,99.90
2017-11-22T21:38:15.867Z,99.90
2017-11-22T21:40:54.387Z,99.90
2017-11-22T21:43:26.247Z,99.90
2017-11-22T21:46:05.077Z,99.90
2017-11-22T21:48:43.459Z,99.90
2017-11-22T21:51:15.552Z,99.90
2017-11-22T21:53:55.996Z,99.90
2017-11-22T21:56:34.852Z,99.90
2017-11-22T21:59:07.439Z,99.90
2017-11-22T22:01:41.141Z,99.90
2017-11-22T22:04:18.810Z,99.90
2017-11-22T22:06:56.574Z,99.90
2017-11-22T22:09:33.977Z,99.90
2017-11-22T22:12:12.478Z,99.90
2017-11-22T22:14:51.518Z,99.90
2017-11-22T22:17:28.352Z,99.90
2017-11-22T22:20:01.850Z,99.90
2017-11-22T22:22:36.172Z,99.90
2017-11-22T22:25:17.906Z,99.90
2017-11-22T22:27:55.007Z,99.90
2017-11-22T22:30:35.410Z,99.90
2017-11-22T22:33:13.810Z,99.90
2017-11-22T22:35:47.599Z,99.90
2017-11-22T22:38:19.910Z,99.90
2017-11-22T22:40:54.019Z,99.90
2017-11-22T22:43:31.171Z,99.90
2017-11-22T22:46:08.896Z,99.90
2017-11-22T22:48:46.678Z,99.90
2017-11-22T22:51:26.476Z,99.90
2017-11-22T22:54:04.960Z,99.90
2017-11-22T22:56:43.271Z,99.90
2017-11-22T22:59:22.967Z,99.90
2017-11-22T23:02:00.065Z,99.90
2017-11-22T23:04:45.121Z,99.90
2017-11-22T23:07:23.223Z,99.90
2017-11-22T23:10:00.667Z,99.90
2017-11-22T23:12:37.397Z,99.90
2017-11-22T23:15:14.449Z,99.90
2017-11-22T23:17:46.623Z,99.90
2017-11-22T23:20:24.701Z,99.90
2017-11-22T23:23:03.198Z,99.90
2017-11-22T23:25:42.984Z,99.90
2017-11-22T23:28:19.855Z,99.90
2017-11-22T23:30:58.033Z,99.90
2017-11-22T23:33:37.798Z,99.90
2017-11-22T23:36:08.965Z,99.90
2017-11-22T23:38:47.768Z,99.90
2017-11-22T23:41:25.981Z,99.90
2017-11-22T23:44:04.932Z,99.90
2017-11-22T23:46:43.392Z,99.90
2017-11-22T23:49:21.259Z,99.90
2017-11-22T23:51:58.961Z,99.90
2017-11-22T23:54:36.429Z,99.90
2017-11-22T23:57:13.314Z,99.90
2017-11-22T23:59:50.444Z,99.90
